sensor_id;sensor_type;location;lat;lon;timestamp;pressure;altitude;pressure_sealevel;temperature;humidity
57102;BME280;42982;54.558;18.508;2022-07-23T00:00:24;100965.09;;;19.49;78.56
57102;BME280;42982;54.558;18.508;2022-07-23T00:01:28;100968.94;;;19.48;78.50
57102;BME280;42982;54.558;18.508;2022-07-23T00:02:35;100966.22;;;19.48;78.47
57102;BME280;42982;54.558;18.508;2022-07-23T00:03:43;100970.88;;;19.47;78.33
57102;BME280;42982;54.558;18.508;2022-07-23T00:04:47;100963.81;;;19.46;78.34
57102;BME280;42982;54.558;18.508;2022-07-23T00:05:52;100961.09;;;19.46;78.54
57102;BME280;42982;54.558;18.508;2022-07-23T00:06:55;100960.31;;;19.45;78.67
57102;BME280;42982;54.558;18.508;2022-07-23T00:08:00;100961.41;;;19.44;78.63
57102;BME280;42982;54.558;18.508;2022-07-23T00:09:10;100961.75;;;19.43;78.63
57102;BME280;42982;54.558;18.508;2022-07-23T00:10:12;100959.03;;;19.43;78.64
57102;BME280;42982;54.558;18.508;2022-07-23T00:11:19;100961.75;;;19.43;78.70
57102;BME280;42982;54.558;18.508;2022-07-23T00:12:25;100968.34;;;19.42;78.64
57102;BME280;42982;54.558;18.508;2022-07-23T00:13:29;100968.66;;;19.40;78.69
57102;BME280;42982;54.558;18.508;2022-07-23T00:14:30;100973.31;;;19.40;78.70
57102;BME280;42982;54.558;18.508;2022-07-23T00:15:36;100970.09;;;19.38;78.69
57102;BME280;42982;54.558;18.508;2022-07-23T00:16:41;100972.84;;;19.38;78.63
57102;BME280;42982;54.558;18.508;2022-07-23T00:17:46;100966.94;;;19.36;78.74
57102;BME280;42982;54.558;18.508;2022-07-23T00:18:50;100960.66;;;19.35;78.83
57102;BME280;42982;54.558;18.508;2022-07-23T00:19:56;100959.84;;;19.35;78.92
57102;BME280;42982;54.558;18.508;2022-07-23T00:21:01;100961.78;;;19.34;78.91
57102;BME280;42982;54.558;18.508;2022-07-23T00:22:03;100967.59;;;19.33;79.18
57102;BME280;42982;54.558;18.508;2022-07-23T00:23:09;100962.13;;;19.33;79.12
57102;BME280;42982;54.558;18.508;2022-07-23T00:24:16;100965.16;;;19.31;79.14
57102;BME280;42982;54.558;18.508;2022-07-23T00:25:22;100967.09;;;19.31;79.37
57102;BME280;42982;54.558;18.508;2022-07-23T00:26:28;100969.81;;;19.31;nan
57102;BME280;42982;54.558;18.508;2022-07-23T00:27:36;100975.28;;;19.31;79.28
57102;BME280;42982;54.558;18.508;2022-07-23T00:28:43;100971.75;;;19.30;79.30
57102;BME280;42982;54.558;18.508;2022-07-23T00:29:48;100979.16;;;19.30;79.53
57102;BME280;42982;54.558;18.508;2022-07-23T00:30:51;100975.28;;;19.31;79.37
57102;BME280;42982;54.558;18.508;2022-07-23T00:31:57;100976.41;;;19.30;79.42
57102;BME280;42982;54.558;18.508;2022-07-23T00:33:04;100967.41;;;19.29;79.54
57102;BME280;42982;54.558;18.508;2022-07-23T00:34:06;100972.06;;;19.29;79.66
57102;BME280;42982;54.558;18.508;2022-07-23T00:35:09;100974.78;;;19.29;79.64
57102;BME280;42982;54.558;18.508;2022-07-23T00:36:11;100974.00;;;19.28;79.74
57102;BME280;42982;54.558;18.508;2022-07-23T00:37:13;100974.78;;;19.29;79.60
57102;BME280;42982;54.558;18.508;2022-07-23T00:38:15;100974.00;;;19.28;79.59
57102;BME280;42982;54.558;18.508;2022-07-23T00:39:20;100973.19;;;19.28;79.86
57102;BME280;42982;54.558;18.508;2022-07-23T00:40:28;100975.13;;;19.27;79.75
57102;BME280;42982;54.558;18.508;2022-07-23T00:41:36;100973.19;;;19.28;79.58
57102;BME280;42982;54.558;18.508;2022-07-23T00:42:37;100971.63;;;19.27;79.69
57102;BME280;42982;54.558;18.508;2022-07-23T00:43:44;100974.34;;;19.27;79.80
57102;BME280;42982;54.558;18.508;2022-07-23T00:44:51;100974.34;;;19.27;79.66
57102;BME280;42982;54.558;18.508;2022-07-23T00:45:56;100968.88;;;19.27;79.91
57102;BME280;42982;54.558;18.508;2022-07-23T00:46:58;100971.63;;;19.27;79.81
57102;BME280;42982;54.558;18.508;2022-07-23T00:48:02;100965.03;;;19.28;79.64
57102;BME280;42982;54.558;18.508;2022-07-23T00:49:03;100968.88;;;19.27;79.89
57102;BME280;42982;54.558;18.508;2022-07-23T00:50:10;100961.03;;;19.25;79.84
57102;BME280;42982;54.558;18.508;2022-07-23T00:51:15;100968.88;;;19.27;79.90
57102;BME280;42982;54.558;18.508;2022-07-23T00:52:21;100963.75;;;19.25;80.02
57102;BME280;42982;54.558;18.508;2022-07-23T00:53:27;100960.22;;;19.25;79.83
57102;BME280;42982;54.558;18.508;2022-07-23T00:54:33;100963.75;;;19.25;79.91
57102;BME280;42982;54.558;18.508;2022-07-23T00:55:35;100959.44;;;19.24;79.84
57102;BME280;42982;54.558;18.508;2022-07-23T00:56:39;100959.44;;;19.24;79.89
57102;BME280;42982;54.558;18.508;2022-07-23T00:57:45;100954.78;;;19.25;79.73
57102;BME280;42982;54.558;18.508;2022-07-23T00:58:47;100962.16;;;19.24;79.73
57102;BME280;42982;54.558;18.508;2022-07-23T00:59:51;100960.22;;;19.25;79.82
57102;BME280;42982;54.558;18.508;2022-07-23T01:00:56;100954.78;;;19.25;79.90
57102;BME280;42982;54.558;18.508;2022-07-23T01:02:01;100961.03;;;19.25;79.63
57102;BME280;42982;54.558;18.508;2022-07-23T01:03:05;100954.78;;;19.25;79.50
57102;BME280;42982;54.558;18.508;2022-07-23T01:04:08;100960.22;;;19.25;79.50
57102;BME280;42982;54.558;18.508;2022-07-23T01:05:09;100959.44;;;19.24;79.37
57102;BME280;42982;54.558;18.508;2022-07-23T01:06:14;100965.69;;;19.25;79.42
57102;BME280;42982;54.558;18.508;2022-07-23T01:07:21;100964.88;;;19.24;79.47
57102;BME280;42982;54.558;18.508;2022-07-23T01:08:24;100954.78;;;19.25;79.36
57102;BME280;42982;54.558;18.508;2022-07-23T01:09:33;100958.63;;;19.24;79.40
57102;BME280;42982;54.558;18.508;2022-07-23T01:10:35;100952.38;;;19.23;79.42
57102;BME280;42982;54.558;18.508;2022-07-23T01:11:42;100957.84;;;19.23;79.32
57102;BME280;42982;54.558;18.508;2022-07-23T01:12:46;100963.28;;;19.23;79.35
57102;BME280;42982;54.558;18.508;2022-07-23T01:13:51;100964.88;;;19.24;79.64
57102;BME280;42982;54.558;18.508;2022-07-23T01:14:56;100957.84;;;19.23;79.49
57102;BME280;42982;54.558;18.508;2022-07-23T01:15:58;100955.44;;;19.21;79.52
57102;BME280;42982;54.558;18.508;2022-07-23T01:17:00;100953.84;;;19.20;79.93
57102;BME280;42982;54.558;18.508;2022-07-23T01:18:03;100952.22;;;19.19;79.72
57102;BME280;42982;54.558;18.508;2022-07-23T01:19:18;100947.59;;;19.20;79.78
57102;BME280;42982;54.558;18.508;2022-07-23T01:20:19;100949.50;;;19.19;79.67
57102;BME280;42982;54.558;18.508;2022-07-23T01:21:21;100950.63;;;19.18;79.80
57102;BME280;42982;54.558;18.508;2022-07-23T01:22:28;100954.50;;;19.17;79.73
57102;BME280;42982;54.558;18.508;2022-07-23T01:23:37;100947.41;;;19.16;79.63
57102;BME280;42982;54.558;18.508;2022-07-23T01:24:39;100952.06;;;19.16;79.50
57102;BME280;42982;54.558;18.508;2022-07-23T01:25:53;100953.22;;;19.15;79.48
57102;BME280;42982;54.558;18.508;2022-07-23T01:26:59;100946.97;;;19.14;79.27
57102;BME280;42982;54.558;18.508;2022-07-23T01:28:06;100946.97;;;19.14;79.05
57102;BME280;42982;54.558;18.508;2022-07-23T01:29:09;100948.06;;;19.13;78.90
57102;BME280;42982;54.558;18.508;2022-07-23T01:30:16;100946.47;;;19.12;79.04
57102;BME280;42982;54.558;18.508;2022-07-23T01:31:18;100942.16;;;19.11;78.81
57102;BME280;42982;54.558;18.508;2022-07-23T01:32:24;100955.78;;;19.11;78.84
57102;BME280;42982;54.558;18.508;2022-07-23T01:33:26;100950.34;;;19.11;78.64
57102;BME280;42982;54.558;18.508;2022-07-23T01:34:30;100946.81;;;19.11;78.83
57102;BME280;42982;54.558;18.508;2022-07-23T01:35:32;100943.28;;;19.10;78.74
57102;BME280;42982;54.558;18.508;2022-07-23T01:36:39;100940.09;;;19.08;78.82
57102;BME280;42982;54.558;18.508;2022-07-23T01:37:40;100939.31;;;19.08;79.00
57102;BME280;42982;54.558;18.508;2022-07-23T01:38:43;100938.47;;;19.07;79.06
57102;BME280;42982;54.558;18.508;2022-07-23T01:39:48;100943.94;;;19.07;79.03
57102;BME280;42982;54.558;18.508;2022-07-23T01:40:55;100947.78;;;19.06;79.18
57102;BME280;42982;54.558;18.508;2022-07-23T01:42:06;100944.59;;;19.04;79.10
57102;BME280;42982;54.558;18.508;2022-07-23T01:43:11;100943.78;;;19.04;79.09
57102;BME280;42982;54.558;18.508;2022-07-23T01:44:18;100933.22;;;19.02;79.34
57102;BME280;42982;54.558;18.508;2022-07-23T01:45:20;100935.16;;;19.02;79.07
57102;BME280;42982;54.558;18.508;2022-07-23T01:46:28;100930.00;;;19.00;78.94
57102;BME280;42982;54.558;18.508;2022-07-23T01:47:34;100931.94;;;18.99;78.84
57102;BME280;42982;54.558;18.508;2022-07-23T01:48:37;100926.84;;;18.98;79.02
57102;BME280;42982;54.558;18.508;2022-07-23T01:50:06;100938.84;;;18.97;78.75
57102;BME280;42982;54.558;18.508;2022-07-23T01:51:37;100930.22;;;18.95;78.72
57102;BME280;42982;54.558;18.508;2022-07-23T01:53:02;100932.44;;;18.93;78.92
57102;BME280;42982;54.558;18.508;2022-07-23T01:54:06;100928.94;;;18.92;78.72
57102;BME280;42982;54.558;18.508;2022-07-23T01:55:08;100924.59;;;18.91;78.74
57102;BME280;42982;54.558;18.508;2022-07-23T01:56:17;100927.16;;;18.88;78.95
57102;BME280;42982;54.558;18.508;2022-07-23T01:57:22;100927.16;;;18.88;79.04
57102;BME280;42982;54.558;18.508;2022-07-23T01:58:28;100926.72;;;18.86;78.75
57102;BME280;42982;54.558;18.508;2022-07-23T01:59:30;100928.63;;;18.85;78.87
57102;BME280;42982;54.558;18.508;2022-07-23T02:00:34;100931.66;;;18.84;78.97
57102;BME280;42982;54.558;18.508;2022-07-23T02:01:36;100941.44;;;18.85;78.92
57102;BME280;42982;54.558;18.508;2022-07-23T02:02:38;100928.94;;;18.84;79.05
57102;BME280;42982;54.558;18.508;2022-07-23T02:03:44;100926.56;;;18.82;79.16
57102;BME280;42982;54.558;18.508;2022-07-23T02:04:46;100930.41;;;18.81;79.02
57102;BME280;42982;54.558;18.508;2022-07-23T02:05:53;100925.28;;;18.80;78.91
57102;BME280;42982;54.558;18.508;2022-07-23T02:06:55;100920.94;;;18.79;79.12
57102;BME280;42982;54.558;18.508;2022-07-23T02:08:01;100919.34;;;18.78;79.16
57102;BME280;42982;54.558;18.508;2022-07-23T02:09:10;100915.03;;;18.77;79.22
57102;BME280;42982;54.558;18.508;2022-07-23T02:10:12;100922.41;;;18.76;79.19
57102;BME280;42982;54.558;18.508;2022-07-23T02:11:18;100919.19;;;18.74;79.07
57102;BME280;42982;54.558;18.508;2022-07-23T02:12:22;100921.59;;;18.75;79.16
57102;BME280;42982;54.558;18.508;2022-07-23T02:13:26;100926.56;;;18.73;79.25
57102;BME280;42982;54.558;18.508;2022-07-23T02:14:32;100926.56;;;18.73;79.22
57102;BME280;42982;54.558;18.508;2022-07-23T02:15:37;100929.31;;;18.73;79.29
57102;BME280;42982;54.558;18.508;2022-07-23T02:16:41;100926.06;;;18.71;79.27
57102;BME280;42982;54.558;18.508;2022-07-23T02:17:44;100928.78;;;18.71;79.25
57102;BME280;42982;54.558;18.508;2022-07-23T02:18:51;100924.47;;;18.70;79.31
57102;BME280;42982;54.558;18.508;2022-07-23T02:19:53;100926.72;;;18.68;79.21
57102;BME280;42982;54.558;18.508;2022-07-23T02:20:58;100924.00;;;18.68;79.25
57102;BME280;42982;54.558;18.508;2022-07-23T02:21:59;100924.00;;;18.68;79.33
57102;BME280;42982;54.558;18.508;2022-07-23T02:23:03;100927.50;;;18.69;79.45
57102;BME280;42982;54.558;18.508;2022-07-23T02:24:07;100932.16;;;18.68;79.27
57102;BME280;42982;54.558;18.508;2022-07-23T02:25:12;100930.56;;;18.67;79.33
57102;BME280;42982;54.558;18.508;2022-07-23T02:26:20;100927.34;;;18.65;79.14
57102;BME280;42982;54.558;18.508;2022-07-23T02:27:24;100916.47;;;18.65;79.08
57102;BME280;42982;54.558;18.508;2022-07-23T02:28:27;100926.91;;;18.63;79.23
57102;BME280;42982;54.558;18.508;2022-07-23T02:29:35;100915.38;;;18.58;79.09
57102;BME280;42982;54.558;18.508;2022-07-23T02:30:40;100924.81;;;18.60;nan
57102;BME280;42982;54.558;18.508;2022-07-23T02:31:43;100925.63;;;18.61;79.07
57102;BME280;42982;54.558;18.508;2022-07-23T02:32:52;100929.44;;;18.60;79.16
57102;BME280;42982;54.558;18.508;2022-07-23T02:33:56;100929.78;;;18.58;79.21
57102;BME280;42982;54.558;18.508;2022-07-23T02:35:03;100932.50;;;18.58;79.06
57102;BME280;42982;54.558;18.508;2022-07-23T02:36:09;100926.25;;;18.58;79.13
57102;BME280;42982;54.558;18.508;2022-07-23T02:37:13;100929.28;;;18.56;79.23
57102;BME280;42982;54.558;18.508;2022-07-23T02:38:16;100933.16;;;18.55;79.05
57102;BME280;42982;54.558;18.508;2022-07-23T02:39:23;100934.28;;;18.54;79.48
57102;BME280;42982;54.558;18.508;2022-07-23T02:40:28;100939.72;;;18.54;79.15
57102;BME280;42982;54.558;18.508;2022-07-23T02:41:37;100937.00;;;18.54;79.27
57102;BME280;42982;54.558;18.508;2022-07-23T02:42:44;100933.47;;;18.53;79.32
57102;BME280;42982;54.558;18.508;2022-07-23T02:43:48;100937.31;;;18.52;79.32
57102;BME280;42982;54.558;18.508;2022-07-23T02:44:56;100933.78;;;18.52;79.12
57102;BME280;42982;54.558;18.508;2022-07-23T02:46:04;100937.66;;;18.51;79.13
57102;BME280;42982;54.558;18.508;2022-07-23T02:47:06;100942.28;;;18.50;79.31
57102;BME280;42982;54.558;18.508;2022-07-23T02:48:11;100941.47;;;18.50;79.38
57102;BME280;42982;54.558;18.508;2022-07-23T02:49:20;100929.47;;;18.51;79.31
57102;BME280;42982;54.558;18.508;2022-07-23T02:50:26;100929.00;;;18.49;79.29
57102;BME280;42982;54.558;18.508;2022-07-23T02:51:31;100929.00;;;18.49;79.28
57102;BME280;42982;54.558;18.508;2022-07-23T02:52:41;100930.91;;;18.48;79.30
57102;BME280;42982;54.558;18.508;2022-07-23T02:53:42;100927.41;;;18.48;79.22
57102;BME280;42982;54.558;18.508;2022-07-23T02:54:46;100925.78;;;18.47;79.51
57102;BME280;42982;54.558;18.508;2022-07-23T02:55:54;100926.59;;;18.47;79.36
57102;BME280;42982;54.558;18.508;2022-07-23T02:56:57;100925.78;;;18.47;79.50
57102;BME280;42982;54.558;18.508;2022-07-23T02:58:07;100927.72;;;18.46;79.60
57102;BME280;42982;54.558;18.508;2022-07-23T02:59:11;100924.19;;;18.46;79.52
57102;BME280;42982;54.558;18.508;2022-07-23T03:00:15;100924.19;;;18.46;79.58
57102;BME280;42982;54.558;18.508;2022-07-23T03:01:17;100925.00;;;18.46;79.92
57102;BME280;42982;54.558;18.508;2022-07-23T03:02:24;100929.34;;;18.47;79.93
57102;BME280;42982;54.558;18.508;2022-07-23T03:03:28;100921.97;;;18.48;79.86
57102;BME280;42982;54.558;18.508;2022-07-23T03:04:33;100924.34;;;18.49;79.93
57102;BME280;42982;54.558;18.508;2022-07-23T03:05:35;100925.94;;;18.50;79.58
57102;BME280;42982;54.558;18.508;2022-07-23T03:06:40;100928.66;;;18.50;79.87
57102;BME280;42982;54.558;18.508;2022-07-23T03:07:41;100926.75;;;18.51;79.69
57102;BME280;42982;54.558;18.508;2022-07-23T03:08:44;100926.75;;;18.51;79.76
57102;BME280;42982;54.558;18.508;2022-07-23T03:09:48;100928.34;;;18.52;79.80
57102;BME280;42982;54.558;18.508;2022-07-23T03:10:51;100926.41;;;18.52;79.74
57102;BME280;42982;54.558;18.508;2022-07-23T03:11:53;100929.94;;;18.53;79.71
57102;BME280;42982;54.558;18.508;2022-07-23T03:12:55;100930.44;;;18.55;79.83
57102;BME280;42982;54.558;18.508;2022-07-23T03:13:57;100924.19;;;18.55;79.82
57102;BME280;42982;54.558;18.508;2022-07-23T03:15:04;100927.69;;;18.55;79.54
57102;BME280;42982;54.558;18.508;2022-07-23T03:16:17;100920.81;;;18.58;79.70
57102;BME280;42982;54.558;18.508;2022-07-23T03:17:20;100922.41;;;18.59;79.70
57102;BME280;42982;54.558;18.508;2022-07-23T03:18:27;100922.09;;;18.60;79.90
57102;BME280;42982;54.558;18.508;2022-07-23T03:19:34;100921.75;;;18.62;79.96
57102;BME280;42982;54.558;18.508;2022-07-23T03:20:38;100923.34;;;18.63;79.84
57102;BME280;42982;54.558;18.508;2022-07-23T03:21:41;100922.72;;;18.66;79.77
57102;BME280;42982;54.558;18.508;2022-07-23T03:22:43;100924.78;;;18.69;79.77
57102;BME280;42982;54.558;18.508;2022-07-23T03:23:45;100932.66;;;18.70;79.59
57102;BME280;42982;54.558;18.508;2022-07-23T03:24:47;100931.22;;;18.73;79.51
57102;BME280;42982;54.558;18.508;2022-07-23T03:26:03;100920.00;;;18.74;79.35
57102;BME280;42982;54.558;18.508;2022-07-23T03:27:06;100925.59;;;18.78;79.24
57102;BME280;42982;54.558;18.508;2022-07-23T03:28:13;100928.81;;;18.80;79.45
57102;BME280;42982;54.558;18.508;2022-07-23T03:29:17;100928.94;;;18.84;79.20
57102;BME280;42982;54.558;18.508;2022-07-23T03:30:22;100917.41;;;18.87;78.90
57102;BME280;42982;54.558;18.508;2022-07-23T03:31:26;100922.19;;;18.90;78.98
57102;BME280;42982;54.558;18.508;2022-07-23T03:32:30;100921.56;;;18.93;78.77
57102;BME280;42982;54.558;18.508;2022-07-23T03:33:33;100920.91;;;18.96;78.85
57102;BME280;42982;54.558;18.508;2022-07-23T03:34:35;100923.28;;;18.97;78.64
57102;BME280;42982;54.558;18.508;2022-07-23T03:35:37;100921.84;;;19.00;78.45
57102;BME280;42982;54.558;18.508;2022-07-23T03:37:00;100917.34;;;19.04;78.28
57102;BME280;42982;54.558;18.508;2022-07-23T03:38:04;100921.81;;;19.09;78.09
57102;BME280;42982;54.558;18.508;2022-07-23T03:39:07;100923.88;;;19.12;77.88
57102;BME280;42982;54.558;18.508;2022-07-23T03:40:11;100925.63;;;19.16;77.96
57102;BME280;42982;54.558;18.508;2022-07-23T03:41:14;100928.50;;;19.20;77.71
57102;BME280;42982;54.558;18.508;2022-07-23T03:42:15;100926.72;;;19.24;77.80
57102;BME280;42982;54.558;18.508;2022-07-23T03:43:21;100928.78;;;19.27;77.59
57102;BME280;42982;54.558;18.508;2022-07-23T03:44:25;100927.00;;;19.31;77.35
57102;BME280;42982;54.558;18.508;2022-07-23T03:45:30;100930.22;;;19.33;77.17
57102;BME280;42982;54.558;18.508;2022-07-23T03:46:39;100924.88;;;19.37;77.24
57102;BME280;42982;54.558;18.508;2022-07-23T03:47:47;100926.16;;;19.39;76.67
57102;BME280;42982;54.558;18.508;2022-07-23T03:48:49;100916.19;;;19.43;76.62
57102;BME280;42982;54.558;18.508;2022-07-23T03:49:53;100912.00;;;19.46;76.55
57102;BME280;42982;54.558;18.508;2022-07-23T03:50:59;100906.69;;;19.50;76.58
57102;BME280;42982;54.558;18.508;2022-07-23T03:52:05;100912.28;;;19.53;76.68
57102;BME280;42982;54.558;18.508;2022-07-23T03:53:12;100913.22;;;19.57;76.55
57102;BME280;42982;54.558;18.508;2022-07-23T03:54:17;100914.16;;;19.61;76.26
57102;BME280;42982;54.558;18.508;2022-07-23T03:55:19;100910.47;;;19.66;76.23
57102;BME280;42982;54.558;18.508;2022-07-23T03:56:28;100911.41;;;19.70;75.83
57102;BME280;42982;54.558;18.508;2022-07-23T03:57:29;100913.16;;;19.75;75.79
57102;BME280;42982;54.558;18.508;2022-07-23T03:58:31;100914.06;;;19.79;75.75
57102;BME280;42982;54.558;18.508;2022-07-23T03:59:34;100915.00;;;19.83;75.81
57102;BME280;42982;54.558;18.508;2022-07-23T04:00:36;100916.75;;;19.87;75.63
57102;BME280;42982;54.558;18.508;2022-07-23T04:01:41;100917.34;;;19.93;75.36
57102;BME280;42982;54.558;18.508;2022-07-23T04:02:48;100913.94;;;19.96;75.16
57102;BME280;42982;54.558;18.508;2022-07-23T04:03:52;100916.47;;;20.01;75.05
57102;BME280;42982;54.558;18.508;2022-07-23T04:04:57;100922.88;;;20.05;74.89
57102;BME280;42982;54.558;18.508;2022-07-23T04:05:58;100914.34;;;20.07;74.88
57102;BME280;42982;54.558;18.508;2022-07-23T04:07:05;100919.59;;;20.12;74.64
57102;BME280;42982;54.558;18.508;2022-07-23T04:08:13;100914.28;;;20.16;74.47
57102;BME280;42982;54.558;18.508;2022-07-23T04:09:20;100922.72;;;20.23;74.44
57102;BME280;42982;54.558;18.508;2022-07-23T04:10:22;100919.78;;;20.28;74.33
57102;BME280;42982;54.558;18.508;2022-07-23T04:11:24;100914.44;;;20.31;74.13
57102;BME280;42982;54.558;18.508;2022-07-23T04:12:31;100914.56;;;20.35;74.05
57102;BME280;42982;54.558;18.508;2022-07-23T04:13:32;100911.66;;;20.40;73.85
57102;BME280;42982;54.558;18.508;2022-07-23T04:14:40;100915.75;;;20.46;73.86
57102;BME280;42982;54.558;18.508;2022-07-23T04:15:41;100902.53;;;20.48;73.19
57102;BME280;42982;54.558;18.508;2022-07-23T04:16:51;100912.16;;;20.54;72.97
57102;BME280;42982;54.558;18.508;2022-07-23T04:17:55;100907.59;;;20.58;72.75
57102;BME280;42982;54.558;18.508;2022-07-23T04:19:04;100908.06;;;20.60;72.22
57102;BME280;42982;54.558;18.508;2022-07-23T04:20:17;100913.34;;;20.66;71.88
57102;BME280;42982;54.558;18.508;2022-07-23T04:21:31;100907.63;;;20.71;71.90
57102;BME280;42982;54.558;18.508;2022-07-23T04:22:37;100907.44;;;20.76;71.70
57102;BME280;42982;54.558;18.508;2022-07-23T04:23:39;100906.41;;;20.80;71.46
57102;BME280;42982;54.558;18.508;2022-07-23T04:24:45;100911.34;;;20.87;71.31
57102;BME280;42982;54.558;18.508;2022-07-23T04:25:50;100906.78;;;20.91;71.30
57102;BME280;42982;54.558;18.508;2022-07-23T04:26:55;100904.94;;;20.95;71.31
57102;BME280;42982;54.558;18.508;2022-07-23T04:27:57;100909.06;;;21.01;71.17
57102;BME280;42982;54.558;18.508;2022-07-23T04:28:59;100899.03;;;21.05;70.94
57102;BME280;42982;54.558;18.508;2022-07-23T04:30:01;100906.66;;;21.12;70.97
57102;BME280;42982;54.558;18.508;2022-07-23T04:31:03;100904.50;;;21.18;70.92
57102;BME280;42982;54.558;18.508;2022-07-23T04:32:11;100899.63;;;21.23;70.68
57102;BME280;42982;54.558;18.508;2022-07-23T04:33:17;100907.25;;;21.30;70.60
57102;BME280;42982;54.558;18.508;2022-07-23T04:34:22;100909.78;;;21.35;70.25
57102;BME280;42982;54.558;18.508;2022-07-23T04:35:28;100905.69;;;21.41;69.95
57102;BME280;42982;54.558;18.508;2022-07-23T04:36:40;100909.44;;;21.49;69.55
57102;BME280;42982;54.558;18.508;2022-07-23T04:37:47;100901.09;;;21.58;69.44
57102;BME280;42982;54.558;18.508;2022-07-23T04:38:50;100901.78;;;21.67;69.16
57102;BME280;42982;54.558;18.508;2022-07-23T04:39:54;100898.91;;;21.75;68.67
57102;BME280;42982;54.558;18.508;2022-07-23T04:41:00;100895.69;;;21.86;68.54
57102;BME280;42982;54.558;18.508;2022-07-23T04:42:04;100895.09;;;21.92;68.20
57102;BME280;42982;54.558;18.508;2022-07-23T04:43:09;100885.03;;;21.96;68.03
57102;BME280;42982;54.558;18.508;2022-07-23T04:44:18;100885.13;;;22.00;67.80
57102;BME280;42982;54.558;18.508;2022-07-23T04:45:22;100881.69;;;22.03;67.58
57102;BME280;42982;54.558;18.508;2022-07-23T04:46:27;100886.47;;;22.06;67.46
57102;BME280;42982;54.558;18.508;2022-07-23T04:47:31;100883.03;;;22.09;67.08
57102;BME280;42982;54.558;18.508;2022-07-23T04:48:33;100882.69;;;22.11;67.05
57102;BME280;42982;54.558;18.508;2022-07-23T04:49:44;100879.59;;;22.12;67.00
57102;BME280;42982;54.558;18.508;2022-07-23T04:50:46;100888.41;;;22.18;66.96
57102;BME280;42982;54.558;18.508;2022-07-23T04:51:57;100890.81;;;22.19;66.50
